Anthem, Arizona
Current Conditions -  °F | °C
As of 12:53 AM on Monday 24 Nov 2014 (Local Time) from KDVT Reporting Station
Clear Clear  
Wind Chill: 45°   Ceiling: Unl
Heat Index: 45°   Visibility: 10mi
Dew Point:   Wind: 0mph
Humidity: 16%   Direction: NA
Pressure: 30.14"   Gusts: NA
Location:  33.8348°N, 112.071°W
Report Text: KDVT 240753Z 00000KT 10SM CLR 07/M17 A3014 RMK AO2 SLP195 T00721172
Loading
Personal Weather Stations






























Interactive Weather Map New forecast layout! Learn more

10-Day Weather Forecast

Advertisements
Track Severe Weather on mobile